sensor_id;sensor_type;location;lat;lon;timestamp;P1;durP1;ratioP1;P2;durP2;ratioP2
56130;SDS011;42000;44.774;20.506;2022-07-19T06:08:23;10.68;;;3.60;;
56130;SDS011;42000;44.774;20.506;2022-07-19T06:10:49;8.68;;;3.50;;
56130;SDS011;42000;44.774;20.506;2022-07-19T06:13:15;9.00;;;3.67;;
56130;SDS011;42000;44.774;20.506;2022-07-19T06:15:41;11.35;;;3.40;;
56130;SDS011;42000;44.774;20.506;2022-07-19T06:18:07;8.32;;;3.67;;
56130;SDS011;42000;44.774;20.506;2022-07-19T06:20:33;8.43;;;3.45;;
56130;SDS011;42000;44.774;20.506;2022-07-19T06:23:00;7.18;;;3.25;;
56130;SDS011;42000;44.774;20.506;2022-07-19T06:25:26;7.20;;;3.08;;
56130;SDS011;42000;44.774;20.506;2022-07-19T06:27:52;7.65;;;3.00;;
56130;SDS011;42000;44.774;20.506;2022-07-19T06:30:18;7.28;;;3.35;;
56130;SDS011;42000;44.774;20.506;2022-07-19T06:32:44;4.97;;;2.80;;
56130;SDS011;42000;44.774;20.506;2022-07-19T06:35:10;9.63;;;3.03;;
56130;SDS011;42000;44.774;20.506;2022-07-19T06:37:36;6.03;;;2.80;;
56130;SDS011;42000;44.774;20.506;2022-07-19T06:40:02;9.63;;;2.95;;
56130;SDS011;42000;44.774;20.506;2022-07-19T06:42:29;10.27;;;3.15;;
56130;SDS011;42000;44.774;20.506;2022-07-19T06:44:55;9.60;;;3.83;;
56130;SDS011;42000;44.774;20.506;2022-07-19T06:47:21;11.05;;;3.35;;
56130;SDS011;42000;44.774;20.506;2022-07-19T06:49:47;8.85;;;3.53;;
56130;SDS011;42000;44.774;20.506;2022-07-19T06:52:13;10.48;;;3.40;;
56130;SDS011;42000;44.774;20.506;2022-07-19T06:54:39;8.68;;;3.60;;
56130;SDS011;42000;44.774;20.506;2022-07-19T06:57:05;8.27;;;3.75;;
56130;SDS011;42000;44.774;20.506;2022-07-19T06:59:33;12.00;;;3.85;;
56130;SDS011;42000;44.774;20.506;2022-07-19T07:01:59;10.30;;;4.03;;
56130;SDS011;42000;44.774;20.506;2022-07-19T07:04:26;9.20;;;3.88;;
56130;SDS011;42000;44.774;20.506;2022-07-19T07:06:52;9.25;;;4.15;;
56130;SDS011;42000;44.774;20.506;2022-07-19T07:09:19;8.18;;;3.72;;
56130;SDS011;42000;44.774;20.506;2022-07-19T07:11:45;13.55;;;4.07;;
56130;SDS011;42000;44.774;20.506;2022-07-19T07:14:11;9.73;;;4.45;;
56130;SDS011;42000;44.774;20.506;2022-07-19T07:16:37;9.40;;;4.38;;
56130;SDS011;42000;44.774;20.506;2022-07-19T07:19:03;7.97;;;4.15;;
56130;SDS011;42000;44.774;20.506;2022-07-19T07:21:29;10.40;;;3.97;;
56130;SDS011;42000;44.774;20.506;2022-07-19T07:23:58;10.45;;;4.10;;
56130;SDS011;42000;44.774;20.506;2022-07-19T07:26:24;10.07;;;4.20;;
56130;SDS011;42000;44.774;20.506;2022-07-19T07:28:50;15.20;;;3.97;;
56130;SDS011;42000;44.774;20.506;2022-07-19T07:31:16;6.85;;;3.88;;
56130;SDS011;42000;44.774;20.506;2022-07-19T07:33:42;11.55;;;3.90;;
56130;SDS011;42000;44.774;20.506;2022-07-19T07:36:08;10.25;;;4.10;;
56130;SDS011;42000;44.774;20.506;2022-07-19T07:38:34;13.10;;;4.20;;
56130;SDS011;42000;44.774;20.506;2022-07-19T07:41:00;13.13;;;4.28;;
56130;SDS011;42000;44.774;20.506;2022-07-19T07:43:26;10.38;;;4.28;;
56130;SDS011;42000;44.774;20.506;2022-07-19T07:45:52;13.18;;;3.97;;
56130;SDS011;42000;44.774;20.506;2022-07-19T07:48:18;10.93;;;3.80;;
56130;SDS011;42000;44.774;20.506;2022-07-19T07:50:44;9.88;;;3.88;;
56130;SDS011;42000;44.774;20.506;2022-07-19T07:53:10;11.23;;;3.70;;
56130;SDS011;42000;44.774;20.506;2022-07-19T07:55:36;11.73;;;3.80;;
56130;SDS011;42000;44.774;20.506;2022-07-19T07:58:08;8.45;;;3.70;;
56130;SDS011;42000;44.774;20.506;2022-07-19T08:00:35;14.82;;;4.00;;
56130;SDS011;42000;44.774;20.506;2022-07-19T08:03:01;13.75;;;4.00;;
56130;SDS011;42000;44.774;20.506;2022-07-19T08:05:27;12.15;;;4.18;;
56130;SDS011;42000;44.774;20.506;2022-07-19T08:07:53;11.10;;;4.20;;
56130;SDS011;42000;44.774;20.506;2022-07-19T08:10:21;12.23;;;4.10;;
56130;SDS011;42000;44.774;20.506;2022-07-19T08:12:47;11.65;;;4.45;;
56130;SDS011;42000;44.774;20.506;2022-07-19T08:15:13;10.13;;;4.57;;
56130;SDS011;42000;44.774;20.506;2022-07-19T08:17:40;11.27;;;4.03;;
56130;SDS011;42000;44.774;20.506;2022-07-19T08:20:06;10.20;;;4.53;;
56130;SDS011;42000;44.774;20.506;2022-07-19T08:22:32;7.00;;;3.80;;
56130;SDS011;42000;44.774;20.506;2022-07-19T08:24:58;7.80;;;3.20;;
56130;SDS011;42000;44.774;20.506;2022-07-19T08:27:24;6.90;;;2.58;;
56130;SDS011;42000;44.774;20.506;2022-07-19T08:29:50;5.88;;;2.00;;
56130;SDS011;42000;44.774;20.506;2022-07-19T08:32:16;5.82;;;2.30;;
56130;SDS011;42000;44.774;20.506;2022-07-19T08:34:42;6.20;;;2.90;;
56130;SDS011;42000;44.774;20.506;2022-07-19T08:37:09;10.68;;;2.90;;
56130;SDS011;42000;44.774;20.506;2022-07-19T08:39:35;8.45;;;2.75;;
56130;SDS011;42000;44.774;20.506;2022-07-19T08:42:01;8.40;;;2.03;;
56130;SDS011;42000;44.774;20.506;2022-07-19T08:44:27;7.53;;;2.20;;
56130;SDS011;42000;44.774;20.506;2022-07-19T08:46:54;6.40;;;2.40;;
56130;SDS011;42000;44.774;20.506;2022-07-19T08:49:20;5.40;;;2.50;;
56130;SDS011;42000;44.774;20.506;2022-07-19T08:51:47;6.20;;;2.20;;
56130;SDS011;42000;44.774;20.506;2022-07-19T08:54:13;6.93;;;2.03;;
56130;SDS011;42000;44.774;20.506;2022-07-19T08:56:40;5.10;;;2.20;;
56130;SDS011;42000;44.774;20.506;2022-07-19T08:59:24;7.88;;;2.08;;
56130;SDS011;42000;44.774;20.506;2022-07-19T09:01:50;4.53;;;1.90;;
56130;SDS011;42000;44.774;20.506;2022-07-19T09:04:20;6.53;;;1.98;;
56130;SDS011;42000;44.774;20.506;2022-07-19T09:06:47;5.07;;;2.25;;
56130;SDS011;42000;44.774;20.506;2022-07-19T09:09:15;3.20;;;1.48;;
56130;SDS011;42000;44.774;20.506;2022-07-19T09:11:45;6.60;;;1.50;;
56130;SDS011;42000;44.774;20.506;2022-07-19T09:14:15;4.30;;;1.63;;
56130;SDS011;42000;44.774;20.506;2022-07-19T09:19:20;8.30;;;1.80;;
56130;SDS011;42000;44.774;20.506;2022-07-19T09:24:25;3.55;;;1.70;;
56130;SDS011;42000;44.774;20.506;2022-07-19T09:26:56;3.38;;;1.30;;
56130;SDS011;42000;44.774;20.506;2022-07-19T09:29:22;6.35;;;1.48;;
56130;SDS011;42000;44.774;20.506;2022-07-19T09:32:01;7.30;;;1.50;;
56130;SDS011;42000;44.774;20.506;2022-07-19T09:34:29;5.00;;;1.45;;
56130;SDS011;42000;44.774;20.506;2022-07-19T09:39:40;5.28;;;1.67;;
56130;SDS011;42000;44.774;20.506;2022-07-19T09:42:15;3.88;;;1.50;;
56130;SDS011;42000;44.774;20.506;2022-07-19T09:44:43;3.35;;;1.80;;
56130;SDS011;42000;44.774;20.506;2022-07-19T09:47:09;5.40;;;1.88;;
56130;SDS011;42000;44.774;20.506;2022-07-19T09:49:35;4.93;;;2.10;;
56130;SDS011;42000;44.774;20.506;2022-07-19T09:52:01;3.83;;;1.70;;
56130;SDS011;42000;44.774;20.506;2022-07-19T09:54:28;6.10;;;1.98;;
56130;SDS011;42000;44.774;20.506;2022-07-19T09:56:55;7.43;;;1.95;;
56130;SDS011;42000;44.774;20.506;2022-07-19T09:59:21;4.05;;;1.95;;
56130;SDS011;42000;44.774;20.506;2022-07-19T10:01:48;3.83;;;1.58;;
56130;SDS011;42000;44.774;20.506;2022-07-19T10:04:16;2.83;;;1.33;;
56130;SDS011;42000;44.774;20.506;2022-07-19T10:06:44;4.47;;;1.70;;
56130;SDS011;42000;44.774;20.506;2022-07-19T10:09:11;4.00;;;1.75;;
56130;SDS011;42000;44.774;20.506;2022-07-19T10:11:37;4.45;;;1.38;;
56130;SDS011;42000;44.774;20.506;2022-07-19T10:14:04;7.07;;;1.50;;
56130;SDS011;42000;44.774;20.506;2022-07-19T10:21:38;4.50;;;1.50;;
56130;SDS011;42000;44.774;20.506;2022-07-19T10:24:05;4.28;;;1.52;;
56130;SDS011;42000;44.774;20.506;2022-07-19T10:29:33;4.85;;;1.60;;
56130;SDS011;42000;44.774;20.506;2022-07-19T10:32:27;5.10;;;2.22;;
56130;SDS011;42000;44.774;20.506;2022-07-19T10:34:45;4.68;;;1.60;;
56130;SDS011;42000;44.774;20.506;2022-07-19T10:37:11;3.78;;;1.55;;
56130;SDS011;42000;44.774;20.506;2022-07-19T10:39:38;5.30;;;1.60;;
56130;SDS011;42000;44.774;20.506;2022-07-19T10:44:34;4.18;;;1.48;;
56130;SDS011;42000;44.774;20.506;2022-07-19T10:47:01;3.72;;;1.45;;
56130;SDS011;42000;44.774;20.506;2022-07-19T10:49:43;3.75;;;1.50;;
56130;SDS011;42000;44.774;20.506;2022-07-19T10:57:38;6.47;;;1.60;;
56130;SDS011;42000;44.774;20.506;2022-07-19T11:02:50;7.07;;;1.88;;
56130;SDS011;42000;44.774;20.506;2022-07-19T11:05:25;3.65;;;1.50;;
56130;SDS011;42000;44.774;20.506;2022-07-19T11:07:53;4.75;;;1.95;;
56130;SDS011;42000;44.774;20.506;2022-07-19T11:12:48;4.82;;;2.53;;
56130;SDS011;42000;44.774;20.506;2022-07-19T11:15:14;7.15;;;1.80;;
56130;SDS011;42000;44.774;20.506;2022-07-19T11:17:54;5.10;;;1.73;;
56130;SDS011;42000;44.774;20.506;2022-07-19T11:20:24;5.68;;;1.52;;
56130;SDS011;42000;44.774;20.506;2022-07-19T11:22:51;7.25;;;1.80;;
56130;SDS011;42000;44.774;20.506;2022-07-19T11:25:22;5.25;;;1.60;;
56130;SDS011;42000;44.774;20.506;2022-07-19T11:27:49;3.67;;;1.63;;
56130;SDS011;42000;44.774;20.506;2022-07-19T11:30:15;3.88;;;2.22;;
56130;SDS011;42000;44.774;20.506;2022-07-19T11:32:41;4.30;;;1.70;;
56130;SDS011;42000;44.774;20.506;2022-07-19T11:35:09;4.85;;;1.73;;
56130;SDS011;42000;44.774;20.506;2022-07-19T11:37:36;9.45;;;1.80;;
56130;SDS011;42000;44.774;20.506;2022-07-19T11:40:04;5.50;;;1.67;;
56130;SDS011;42000;44.774;20.506;2022-07-19T11:44:56;5.93;;;2.25;;
56130;SDS011;42000;44.774;20.506;2022-07-19T11:47:22;5.40;;;2.05;;
56130;SDS011;42000;44.774;20.506;2022-07-19T11:49:49;8.05;;;2.20;;
56130;SDS011;42000;44.774;20.506;2022-07-19T11:52:15;6.07;;;1.77;;
56130;SDS011;42000;44.774;20.506;2022-07-19T11:54:41;4.15;;;1.92;;
56130;SDS011;42000;44.774;20.506;2022-07-19T11:57:22;6.95;;;1.73;;
56130;SDS011;42000;44.774;20.506;2022-07-19T12:02:15;5.15;;;1.67;;
56130;SDS011;42000;44.774;20.506;2022-07-19T12:04:41;3.70;;;1.80;;
56130;SDS011;42000;44.774;20.506;2022-07-19T12:07:07;4.82;;;1.70;;
56130;SDS011;42000;44.774;20.506;2022-07-19T12:09:33;5.65;;;1.70;;
56130;SDS011;42000;44.774;20.506;2022-07-19T12:12:10;2.90;;;1.67;;
56130;SDS011;42000;44.774;20.506;2022-07-19T12:14:37;4.78;;;1.80;;
56130;SDS011;42000;44.774;20.506;2022-07-19T12:17:20;2.92;;;1.60;;
56130;SDS011;42000;44.774;20.506;2022-07-19T12:20:06;3.55;;;1.65;;
56130;SDS011;42000;44.774;20.506;2022-07-19T12:22:33;2.63;;;1.50;;
56130;SDS011;42000;44.774;20.506;2022-07-19T12:25:00;4.15;;;1.50;;
56130;SDS011;42000;44.774;20.506;2022-07-19T12:27:26;4.53;;;1.67;;
56130;SDS011;42000;44.774;20.506;2022-07-19T12:29:53;6.32;;;1.67;;
56130;SDS011;42000;44.774;20.506;2022-07-19T12:40:24;3.70;;;1.83;;
56130;SDS011;42000;44.774;20.506;2022-07-19T12:45:10;5.13;;;1.58;;
56130;SDS011;42000;44.774;20.506;2022-07-19T12:47:36;5.53;;;1.75;;
56130;SDS011;42000;44.774;20.506;2022-07-19T12:50:02;5.28;;;1.70;;
56130;SDS011;42000;44.774;20.506;2022-07-19T12:52:29;4.53;;;1.70;;
56130;SDS011;42000;44.774;20.506;2022-07-19T12:54:55;4.28;;;1.65;;
56130;SDS011;42000;44.774;20.506;2022-07-19T12:57:21;2.42;;;1.38;;
56130;SDS011;42000;44.774;20.506;2022-07-19T12:59:47;6.65;;;1.70;;
56130;SDS011;42000;44.774;20.506;2022-07-19T13:02:15;5.15;;;1.70;;
56130;SDS011;42000;44.774;20.506;2022-07-19T13:04:42;5.35;;;1.50;;
56130;SDS011;42000;44.774;20.506;2022-07-19T13:07:08;4.20;;;1.88;;
56130;SDS011;42000;44.774;20.506;2022-07-19T13:09:35;4.78;;;1.70;;
56130;SDS011;42000;44.774;20.506;2022-07-19T13:12:02;5.95;;;1.55;;
56130;SDS011;42000;44.774;20.506;2022-07-19T13:14:29;3.33;;;1.60;;
56130;SDS011;42000;44.774;20.506;2022-07-19T13:16:55;5.93;;;1.80;;
56130;SDS011;42000;44.774;20.506;2022-07-19T13:19:21;6.20;;;1.83;;
56130;SDS011;42000;44.774;20.506;2022-07-19T13:21:47;3.08;;;1.60;;
56130;SDS011;42000;44.774;20.506;2022-07-19T13:24:13;3.92;;;1.42;;
56130;SDS011;42000;44.774;20.506;2022-07-19T13:26:39;3.78;;;1.33;;
56130;SDS011;42000;44.774;20.506;2022-07-19T13:29:05;4.45;;;1.35;;
56130;SDS011;42000;44.774;20.506;2022-07-19T13:31:31;8.45;;;1.60;;
56130;SDS011;42000;44.774;20.506;2022-07-19T13:33:58;5.18;;;1.50;;
56130;SDS011;42000;44.774;20.506;2022-07-19T13:36:24;10.35;;;1.90;;
56130;SDS011;42000;44.774;20.506;2022-07-19T13:38:50;6.07;;;1.60;;
56130;SDS011;42000;44.774;20.506;2022-07-19T13:41:16;2.30;;;1.35;;
56130;SDS011;42000;44.774;20.506;2022-07-19T13:43:45;6.70;;;1.90;;
56130;SDS011;42000;44.774;20.506;2022-07-19T13:46:12;4.55;;;1.90;;
56130;SDS011;42000;44.774;20.506;2022-07-19T13:48:39;3.95;;;1.33;;
56130;SDS011;42000;44.774;20.506;2022-07-19T13:51:05;6.50;;;1.80;;
56130;SDS011;42000;44.774;20.506;2022-07-19T13:53:32;5.22;;;1.45;;
56130;SDS011;42000;44.774;20.506;2022-07-19T13:55:58;4.70;;;1.50;;
56130;SDS011;42000;44.774;20.506;2022-07-19T13:58:24;8.27;;;1.52;;
56130;SDS011;42000;44.774;20.506;2022-07-19T14:00:50;5.07;;;1.60;;
56130;SDS011;42000;44.774;20.506;2022-07-19T14:03:16;5.38;;;1.60;;
56130;SDS011;42000;44.774;20.506;2022-07-19T14:05:43;7.35;;;1.60;;
56130;SDS011;42000;44.774;20.506;2022-07-19T14:08:09;2.83;;;1.42;;
56130;SDS011;42000;44.774;20.506;2022-07-19T14:10:36;2.97;;;1.30;;
56130;SDS011;42000;44.774;20.506;2022-07-19T14:13:02;2.95;;;1.23;;
56130;SDS011;42000;44.774;20.506;2022-07-19T14:15:29;3.08;;;1.30;;
56130;SDS011;42000;44.774;20.506;2022-07-19T14:17:55;4.47;;;1.45;;
56130;SDS011;42000;44.774;20.506;2022-07-19T14:20:21;4.47;;;1.50;;
56130;SDS011;42000;44.774;20.506;2022-07-19T14:22:48;6.95;;;1.40;;
56130;SDS011;42000;44.774;20.506;2022-07-19T14:25:14;3.78;;;1.30;;
56130;SDS011;42000;44.774;20.506;2022-07-19T14:27:40;3.50;;;1.17;;
56130;SDS011;42000;44.774;20.506;2022-07-19T14:30:06;6.45;;;1.05;;
56130;SDS011;42000;44.774;20.506;2022-07-19T14:32:32;1.80;;;1.10;;
56130;SDS011;42000;44.774;20.506;2022-07-19T14:34:58;3.17;;;1.40;;
56130;SDS011;42000;44.774;20.506;2022-07-19T14:37:24;1.73;;;1.10;;
56130;SDS011;42000;44.774;20.506;2022-07-19T14:39:50;2.67;;;1.35;;
56130;SDS011;42000;44.774;20.506;2022-07-19T14:42:16;3.65;;;1.30;;
56130;SDS011;42000;44.774;20.506;2022-07-19T14:44:43;2.35;;;1.10;;
56130;SDS011;42000;44.774;20.506;2022-07-19T14:47:09;3.15;;;1.30;;
56130;SDS011;42000;44.774;20.506;2022-07-19T14:49:35;3.35;;;1.20;;
56130;SDS011;42000;44.774;20.506;2022-07-19T14:52:01;2.55;;;1.30;;
56130;SDS011;42000;44.774;20.506;2022-07-19T14:54:28;4.45;;;1.10;;
56130;SDS011;42000;44.774;20.506;2022-07-19T14:56:54;2.22;;;1.20;;
56130;SDS011;42000;44.774;20.506;2022-07-19T14:59:20;3.80;;;1.88;;
56130;SDS011;42000;44.774;20.506;2022-07-19T15:01:47;3.97;;;1.15;;
56130;SDS011;42000;44.774;20.506;2022-07-19T15:04:13;8.77;;;1.30;;
56130;SDS011;42000;44.774;20.506;2022-07-19T15:06:39;3.13;;;1.40;;
56130;SDS011;42000;44.774;20.506;2022-07-19T15:09:05;2.92;;;1.30;;
56130;SDS011;42000;44.774;20.506;2022-07-19T15:11:31;3.72;;;1.23;;
56130;SDS011;42000;44.774;20.506;2022-07-19T15:14:01;5.60;;;1.20;;
56130;SDS011;42000;44.774;20.506;2022-07-19T15:16:27;3.53;;;1.50;;
56130;SDS011;42000;44.774;20.506;2022-07-19T15:18:53;6.90;;;1.20;;
56130;SDS011;42000;44.774;20.506;2022-07-19T15:21:19;3.40;;;1.80;;
56130;SDS011;42000;44.774;20.506;2022-07-19T15:23:46;3.40;;;1.38;;
56130;SDS011;42000;44.774;20.506;2022-07-19T15:26:12;4.05;;;1.55;;
56130;SDS011;42000;44.774;20.506;2022-07-19T15:28:38;4.28;;;1.60;;
56130;SDS011;42000;44.774;20.506;2022-07-19T15:31:04;2.20;;;1.52;;
56130;SDS011;42000;44.774;20.506;2022-07-19T15:33:31;3.95;;;1.40;;
56130;SDS011;42000;44.774;20.506;2022-07-19T15:35:57;2.10;;;1.23;;
56130;SDS011;42000;44.774;20.506;2022-07-19T15:38:23;2.00;;;1.10;;
56130;SDS011;42000;44.774;20.506;2022-07-19T15:40:49;4.75;;;1.10;;
56130;SDS011;42000;44.774;20.506;2022-07-19T15:43:16;3.05;;;1.52;;
56130;SDS011;42000;44.774;20.506;2022-07-19T15:45:42;3.40;;;1.20;;
56130;SDS011;42000;44.774;20.506;2022-07-19T15:48:08;4.78;;;1.42;;
56130;SDS011;42000;44.774;20.506;2022-07-19T15:50:34;4.75;;;1.23;;
56130;SDS011;42000;44.774;20.506;2022-07-19T15:53:03;3.42;;;1.45;;
56130;SDS011;42000;44.774;20.506;2022-07-19T15:55:29;4.88;;;1.27;;
56130;SDS011;42000;44.774;20.506;2022-07-19T15:57:55;2.45;;;1.58;;
56130;SDS011;42000;44.774;20.506;2022-07-19T16:00:21;5.40;;;1.80;;
56130;SDS011;42000;44.774;20.506;2022-07-19T16:02:47;7.40;;;1.70;;
56130;SDS011;42000;44.774;20.506;2022-07-19T16:05:13;4.28;;;1.50;;
56130;SDS011;42000;44.774;20.506;2022-07-19T16:07:39;3.55;;;1.70;;
56130;SDS011;42000;44.774;20.506;2022-07-19T16:10:06;4.60;;;2.05;;
56130;SDS011;42000;44.774;20.506;2022-07-19T16:12:33;3.05;;;1.40;;
56130;SDS011;42000;44.774;20.506;2022-07-19T16:14:59;3.55;;;1.23;;
56130;SDS011;42000;44.774;20.506;2022-07-19T16:17:25;4.28;;;1.45;;
56130;SDS011;42000;44.774;20.506;2022-07-19T16:19:51;3.13;;;1.70;;
56130;SDS011;42000;44.774;20.506;2022-07-19T16:22:18;3.22;;;1.60;;
56130;SDS011;42000;44.774;20.506;2022-07-19T16:24:44;4.18;;;1.48;;
56130;SDS011;42000;44.774;20.506;2022-07-19T16:27:10;5.60;;;1.60;;
56130;SDS011;42000;44.774;20.506;2022-07-19T16:29:36;5.13;;;1.48;;
56130;SDS011;42000;44.774;20.506;2022-07-19T16:32:03;3.50;;;1.67;;
56130;SDS011;42000;44.774;20.506;2022-07-19T16:34:29;4.05;;;1.50;;
56130;SDS011;42000;44.774;20.506;2022-07-19T16:36:55;5.55;;;1.42;;
56130;SDS011;42000;44.774;20.506;2022-07-19T16:39:21;3.45;;;1.40;;
56130;SDS011;42000;44.774;20.506;2022-07-19T16:41:47;3.25;;;1.40;;
56130;SDS011;42000;44.774;20.506;2022-07-19T16:44:13;2.17;;;1.38;;
56130;SDS011;42000;44.774;20.506;2022-07-19T16:46:39;3.53;;;1.30;;
56130;SDS011;42000;44.774;20.506;2022-07-19T16:49:05;4.88;;;1.48;;
56130;SDS011;42000;44.774;20.506;2022-07-19T16:51:31;6.13;;;1.20;;
56130;SDS011;42000;44.774;20.506;2022-07-19T16:53:57;3.05;;;1.40;;
56130;SDS011;42000;44.774;20.506;2022-07-19T16:56:23;2.03;;;1.08;;
56130;SDS011;42000;44.774;20.506;2022-07-19T16:58:51;3.55;;;1.40;;
56130;SDS011;42000;44.774;20.506;2022-07-19T17:01:17;3.38;;;1.40;;
56130;SDS011;42000;44.774;20.506;2022-07-19T17:03:44;3.72;;;1.50;;
56130;SDS011;42000;44.774;20.506;2022-07-19T17:06:10;3.58;;;1.50;;
56130;SDS011;42000;44.774;20.506;2022-07-19T17:08:38;2.45;;;1.20;;
56130;SDS011;42000;44.774;20.506;2022-07-19T17:11:05;2.42;;;1.30;;
56130;SDS011;42000;44.774;20.506;2022-07-19T17:13:31;2.42;;;1.23;;
56130;SDS011;42000;44.774;20.506;2022-07-19T17:15:57;3.90;;;1.30;;
56130;SDS011;42000;44.774;20.506;2022-07-19T17:18:23;3.00;;;1.13;;
56130;SDS011;42000;44.774;20.506;2022-07-19T17:20:49;3.92;;;1.25;;
56130;SDS011;42000;44.774;20.506;2022-07-19T17:23:15;3.20;;;1.48;;
56130;SDS011;42000;44.774;20.506;2022-07-19T17:25:41;3.90;;;1.42;;
56130;SDS011;42000;44.774;20.506;2022-07-19T17:28:07;3.53;;;1.08;;
56130;SDS011;42000;44.774;20.506;2022-07-19T17:30:34;2.78;;;1.30;;
56130;SDS011;42000;44.774;20.506;2022-07-19T17:33:00;3.83;;;1.00;;
56130;SDS011;42000;44.774;20.506;2022-07-19T17:35:26;2.63;;;1.40;;
56130;SDS011;42000;44.774;20.506;2022-07-19T17:37:52;4.03;;;1.58;;
56130;SDS011;42000;44.774;20.506;2022-07-19T17:40:18;4.65;;;1.35;;
56130;SDS011;42000;44.774;20.506;2022-07-19T17:42:44;5.80;;;1.75;;
56130;SDS011;42000;44.774;20.506;2022-07-19T17:45:10;3.00;;;1.40;;
56130;SDS011;42000;44.774;20.506;2022-07-19T17:47:36;4.53;;;1.50;;
56130;SDS011;42000;44.774;20.506;2022-07-19T17:50:02;3.53;;;1.50;;
56130;SDS011;42000;44.774;20.506;2022-07-19T18:03:59;21.40;;;2.00;;
56130;SDS011;42000;44.774;20.506;2022-07-19T18:06:25;21.15;;;2.60;;
56130;SDS011;42000;44.774;20.506;2022-07-19T18:08:51;26.27;;;2.20;;
56130;SDS011;42000;44.774;20.506;2022-07-19T18:11:17;12.82;;;2.70;;
56130;SDS011;42000;44.774;20.506;2022-07-19T18:13:43;22.67;;;2.80;;
56130;SDS011;42000;44.774;20.506;2022-07-19T18:16:10;15.38;;;2.47;;
56130;SDS011;42000;44.774;20.506;2022-07-19T18:18:36;10.25;;;2.17;;
56130;SDS011;42000;44.774;20.506;2022-07-19T18:21:02;9.05;;;4.40;;
56130;SDS011;42000;44.774;20.506;2022-07-19T18:23:28;22.02;;;3.60;;
56130;SDS011;42000;44.774;20.506;2022-07-19T18:25:54;17.83;;;4.03;;
56130;SDS011;42000;44.774;20.506;2022-07-19T18:28:21;21.02;;;4.30;;
56130;SDS011;42000;44.774;20.506;2022-07-19T18:30:47;23.33;;;4.63;;
56130;SDS011;42000;44.774;20.506;2022-07-19T18:33:13;14.27;;;4.93;;
56130;SDS011;42000;44.774;20.506;2022-07-19T18:35:39;19.70;;;5.80;;
56130;SDS011;42000;44.774;20.506;2022-07-19T18:38:05;27.60;;;6.38;;
56130;SDS011;42000;44.774;20.506;2022-07-19T18:40:32;12.90;;;6.65;;
56130;SDS011;42000;44.774;20.506;2022-07-19T18:42:58;15.32;;;7.32;;
56130;SDS011;42000;44.774;20.506;2022-07-19T18:45:24;12.45;;;7.30;;
56130;SDS011;42000;44.774;20.506;2022-07-19T18:47:50;14.48;;;6.95;;
56130;SDS011;42000;44.774;20.506;2022-07-19T18:50:16;14.15;;;5.78;;
56130;SDS011;42000;44.774;20.506;2022-07-19T18:52:43;12.82;;;6.25;;
56130;SDS011;42000;44.774;20.506;2022-07-19T18:55:09;12.75;;;6.90;;
56130;SDS011;42000;44.774;20.506;2022-07-19T18:57:35;22.23;;;6.53;;
56130;SDS011;42000;44.774;20.506;2022-07-19T19:00:02;12.55;;;7.00;;
56130;SDS011;42000;44.774;20.506;2022-07-19T19:02:28;14.63;;;6.85;;
56130;SDS011;42000;44.774;20.506;2022-07-19T19:04:54;18.67;;;6.63;;
56130;SDS011;42000;44.774;20.506;2022-07-19T19:07:20;13.88;;;7.07;;
56130;SDS011;42000;44.774;20.506;2022-07-19T19:09:47;13.90;;;8.23;;
56130;SDS011;42000;44.774;20.506;2022-07-19T19:12:14;19.02;;;9.30;;
56130;SDS011;42000;44.774;20.506;2022-07-19T19:14:40;11.07;;;7.40;;
56130;SDS011;42000;44.774;20.506;2022-07-19T19:17:06;16.77;;;7.40;;
56130;SDS011;42000;44.774;20.506;2022-07-19T19:19:33;20.95;;;8.48;;
56130;SDS011;42000;44.774;20.506;2022-07-19T19:21:59;14.98;;;7.60;;
56130;SDS011;42000;44.774;20.506;2022-07-19T19:24:25;17.23;;;8.55;;
56130;SDS011;42000;44.774;20.506;2022-07-19T19:26:51;13.98;;;6.10;;
56130;SDS011;42000;44.774;20.506;2022-07-19T19:29:17;12.90;;;6.97;;
56130;SDS011;42000;44.774;20.506;2022-07-19T19:31:43;12.20;;;6.82;;
56130;SDS011;42000;44.774;20.506;2022-07-19T19:34:09;15.48;;;7.78;;
56130;SDS011;42000;44.774;20.506;2022-07-19T19:36:35;13.93;;;6.57;;
56130;SDS011;42000;44.774;20.506;2022-07-19T19:39:02;13.38;;;6.85;;
56130;SDS011;42000;44.774;20.506;2022-07-19T19:41:29;13.88;;;6.00;;
56130;SDS011;42000;44.774;20.506;2022-07-19T19:43:55;15.55;;;6.95;;
56130;SDS011;42000;44.774;20.506;2022-07-19T19:46:21;12.55;;;6.38;;
56130;SDS011;42000;44.774;20.506;2022-07-19T19:48:47;14.90;;;6.97;;
